Time;durP1;ratioP1;P1;durP2;ratioP2;P2;SDS_P1;SDS_P2;PMS_P1;PMS_P2;Temp;Humidity;BMP_temperature;BMP_pressure;BME280_temperature;BME280_humidity;BME280_pressure;Samples;Min_cycle;Max_cycle;Signal;HPM_P1;HPM_P2
2023/11/27 00:02:03;;;;;;;31.00;17.70;;;;;;;2.85;100.00;100837.09;5042843;28;20037;-74
2023/11/27 00:04:29;;;;;;;30.70;16.83;;;;;;;2.84;100.00;100827.47;5044300;28;20033;-73
2023/11/27 00:06:54;;;;;;;29.55;16.42;;;;;;;2.84;100.00;100830.09;5044370;28;20025;-73
2023/11/27 00:09:21;;;;;;;29.95;16.90;;;;;;;2.87;100.00;100830.19;5043026;28;20112;-73
2023/11/27 00:11:46;;;;;;;30.95;17.40;;;;;;;2.81;100.00;100819.53;5045467;28;20025;-74
2023/11/27 00:14:12;;;;;;;29.63;17.15;;;;;;;2.83;100.00;100820.50;5042450;28;20033;-73
2023/11/27 00:16:37;;;;;;;31.67;17.52;;;;;;;2.81;100.00;100814.31;5045429;28;20522;-74
2023/11/27 00:19:03;;;;;;;29.00;16.77;;;;;;;2.77;100.00;100806.38;5041836;28;20025;-74
2023/11/27 00:21:28;;;;;;;30.40;17.60;;;;;;;2.79;100.00;100799.47;5043738;28;20400;-76
2023/11/27 00:23:53;;;;;;;31.17;17.23;;;;;;;2.78;100.00;100800.34;5043911;28;20040;-76
2023/11/27 00:26:19;;;;;;;31.85;17.52;;;;;;;2.78;100.00;100795.13;5042714;28;20092;-76
2023/11/27 00:28:44;;;;;;;30.13;16.70;;;;;;;2.78;100.00;100791.59;5045377;28;20498;-76
2023/11/27 00:31:09;;;;;;;30.30;16.65;;;;;;;2.81;100.00;100783.00;5041761;28;20037;-76
2023/11/27 00:33:38;;;;;;;30.90;17.33;;;;;;;2.75;100.00;100786.28;5043492;28;20086;-76
2023/11/27 00:36:04;;;;;;;28.33;15.73;;;;;;;2.80;100.00;100774.28;5042353;28;20021;-76
2023/11/27 00:38:30;;;;;;;28.35;15.98;;;;;;;2.75;100.00;100770.59;5043701;28;20049;-76
2023/11/27 00:40:55;;;;;;;30.40;16.75;;;;;;;2.73;100.00;100760.13;5043608;28;20464;-76
2023/11/27 00:43:21;;;;;;;30.23;15.85;;;;;;;2.71;100.00;100756.56;5042385;28;20058;-76
2023/11/27 00:45:46;;;;;;;28.15;15.77;;;;;;;2.74;100.00;100747.97;5043396;28;20437;-76
2023/11/27 00:48:11;;;;;;;30.10;16.60;;;;;;;2.72;100.00;100747.91;5041659;28;20030;-76
2023/11/27 00:50:37;;;;;;;29.55;15.73;;;;;;;2.70;100.00;100744.34;5044491;28;20044;-76
2023/11/27 00:53:03;;;;;;;29.27;17.13;;;;;;;2.72;100.00;100729.66;5042284;28;20036;-76
2023/11/27 00:55:28;;;;;;;28.45;16.08;;;;;;;2.75;100.00;100734.97;5043337;28;20033;-76
2023/11/27 00:57:54;;;;;;;28.05;16.10;;;;;;;2.73;100.00;100723.56;5043214;28;20068;-76
2023/11/27 01:00:19;;;;;;;30.65;16.70;;;;;;;2.69;100.00;100718.19;5042311;28;20048;-76
2023/11/27 01:02:45;;;;;;;28.17;15.07;;;;;;;2.67;100.00;100723.38;5043300;28;20065;-76
2023/11/27 01:05:11;;;;;;;28.88;15.32;;;;;;;2.73;100.00;100712.25;5039957;28;20018;-76
2023/11/27 01:07:36;;;;;;;29.55;16.02;;;;;;;2.70;100.00;100706.94;5044188;28;20119;-76
2023/11/27 01:10:02;;;;;;;27.13;15.23;;;;;;;2.69;100.00;100703.41;5042074;28;20025;-76
2023/11/27 01:12:27;;;;;;;29.65;15.70;;;;;;;2.72;100.00;100697.41;5042204;28;20033;-76
2023/11/27 01:14:52;;;;;;;29.27;15.98;;;;;;;2.67;100.00;100705.09;5043551;28;20033;-76
2023/11/27 01:17:18;;;;;;;27.23;14.68;;;;;;;2.70;100.00;100696.47;5041273;28;20064;-75
2023/11/27 01:19:43;;;;;;;30.10;15.40;;;;;;;2.73;100.00;100694.84;5044488;28;20465;-72
2023/11/27 01:22:09;;;;;;;28.33;15.70;;;;;;;2.71;100.00;100686.09;5041150;28;20076;-72
2023/11/27 01:24:34;;;;;;;29.38;15.40;;;;;;;2.70;100.00;100681.69;5043652;28;20056;-73
2023/11/27 01:27:00;;;;;;;30.42;15.27;;;;;;;2.74;100.00;100675.75;5042151;28;20029;-73
2023/11/27 01:29:26;;;;;;;27.08;15.40;;;;;;;2.76;100.00;100674.06;5042593;28;20034;-71
2023/11/27 01:31:51;;;;;;;27.60;14.93;;;;;;;2.73;100.00;100663.53;5043433;28;20075;-74
2023/11/27 01:34:17;;;;;;;27.02;15.25;;;;;;;2.75;100.00;100671.41;5040032;28;20033;-74
2023/11/27 01:36:44;;;;;;;28.40;14.65;;;;;;;2.74;100.00;100667.91;5044462;28;20032;-73
2023/11/27 01:39:09;;;;;;;27.48;14.77;;;;;;;2.72;100.00;100656.56;5040782;28;20030;-74
2023/11/27 01:41:35;;;;;;;27.88;14.95;;;;;;;2.70;100.00;100650.38;5043560;28;20083;-73
2023/11/27 01:44:01;;;;;;;30.60;15.57;;;;;;;2.72;100.00;100651.31;5041939;28;20108;-73
2023/11/27 01:46:27;;;;;;;29.15;16.05;;;;;;;2.66;100.00;100645.88;5042247;28;20117;-73
2023/11/27 01:48:54;;;;;;;26.88;15.48;;;;;;;2.67;100.00;100641.56;5041981;28;20051;-72
2023/11/27 01:51:21;;;;;;;27.52;15.27;;;;;;;2.67;100.00;100642.44;5041425;28;20053;-74
2023/11/27 01:53:49;;;;;;;28.40;16.02;;;;;;;2.64;100.00;100637.13;5043980;28;20025;-74
2023/11/27 01:56:16;;;;;;;29.50;16.05;;;;;;;2.66;100.00;100631.94;5040541;28;20103;-73
2023/11/27 01:58:43;;;;;;;28.13;15.40;;;;;;;2.69;100.00;100630.31;5036763;28;20045;-76
2023/11/27 02:01:09;;;;;;;30.42;16.60;;;;;;;2.66;100.00;100624.13;5043690;28;20131;-76
2023/11/27 02:03:35;;;;;;;29.55;16.75;;;;;;;2.63;100.00;100621.41;5041419;28;20061;-76
2023/11/27 02:06:00;;;;;;;29.65;17.05;;;;;;;2.63;100.00;100610.97;5042619;28;20491;-76
2023/11/27 02:08:27;;;;;;;30.65;16.90;;;;;;;2.67;100.00;100603.28;5042498;28;20079;-76
2023/11/27 02:10:53;;;;;;;30.02;17.23;;;;;;;2.65;100.00;100601.47;5041698;28;20033;-75
2023/11/27 02:13:18;;;;;;;30.00;17.95;;;;;;;2.66;100.00;100598.91;5043476;28;20037;-75
2023/11/27 02:15:44;;;;;;;28.52;16.00;;;;;;;2.64;100.00;100604.94;5040385;28;20030;-75
2023/11/27 02:18:10;;;;;;;29.20;16.65;;;;;;;2.65;100.00;100597.16;5042726;28;20114;-75
2023/11/27 02:20:35;;;;;;;29.33;16.40;;;;;;;2.64;100.00;100589.25;5041102;28;20128;-76
2023/11/27 02:23:00;;;;;;;27.88;17.05;;;;;;;2.61;100.00;100590.03;5042377;28;20092;-75
2023/11/27 02:25:26;;;;;;;28.75;16.73;;;;;;;2.62;100.00;100586.56;5045134;28;20029;-75
2023/11/27 02:27:52;;;;;;;28.98;16.05;;;;;;;2.66;100.00;100578.00;5045175;28;20029;-75
2023/11/27 02:30:20;;;;;;;28.77;16.95;;;;;;;2.64;100.00;100576.22;5045963;28;20391;-75
2023/11/27 02:32:47;;;;;;;31.08;18.40;;;;;;;2.59;100.00;100571.72;5043019;28;20033;-74
2023/11/27 02:35:12;;;;;;;31.05;18.00;;;;;;;2.59;100.00;100560.38;5040158;28;20041;-74
2023/11/27 02:37:37;;;;;;;31.42;18.60;;;;;;;2.56;100.00;100557.69;5046931;28;20021;-76
2023/11/27 02:40:03;;;;;;;31.77;18.52;;;;;;;2.57;100.00;100547.28;5045085;28;20099;-77
2023/11/27 02:42:28;;;;;;;30.70;18.33;;;;;;;2.58;100.00;100548.19;5045614;28;20041;-76
2023/11/27 02:44:54;;;;;;;32.28;19.48;;;;;;;2.56;100.00;100542.00;5046063;28;20512;-77
2023/11/27 02:47:19;;;;;;;31.20;18.65;;;;;;;2.57;100.00;100530.75;5044399;28;20473;-76
2023/11/27 02:49:45;;;;;;;32.75;18.75;;;;;;;2.58;100.00;100533.41;5047146;28;20037;-76
2023/11/27 02:52:10;;;;;;;32.83;19.02;;;;;;;2.54;100.00;100520.22;5042711;28;20030;-76
2023/11/27 02:54:35;;;;;;;32.50;18.05;;;;;;;2.51;100.00;100500.13;5046233;28;20040;-76
2023/11/27 02:57:01;;;;;;;32.53;19.55;;;;;;;2.54;100.00;100515.00;5044781;28;20088;-76
2023/11/27 02:59:26;;;;;;;32.80;19.15;;;;;;;2.52;100.00;100504.50;5045191;28;20053;-76
2023/11/27 03:01:52;;;;;;;31.05;18.10;;;;;;;2.54;100.00;100500.22;5046021;28;20037;-76
2023/11/27 03:04:17;;;;;;;31.40;18.83;;;;;;;2.52;100.00;100481.03;5042514;28;20029;-76
2023/11/27 03:06:43;;;;;;;32.22;18.90;;;;;;;2.52;100.00;100481.03;5047006;28;20025;-75
2023/11/27 03:09:10;;;;;;;33.75;20.08;;;;;;;2.51;100.00;100480.97;5043649;28;20056;-76
2023/11/27 03:11:36;;;;;;;31.40;19.58;;;;;;;2.49;100.00;100472.19;5045964;28;20041;-76
2023/11/27 03:14:01;;;;;;;35.20;21.92;;;;;;;2.47;100.00;100472.16;5043458;28;20396;-76
2023/11/27 03:16:28;;;;;;;33.70;20.48;;;;;;;2.48;100.00;100453.06;5044507;28;20025;-76
2023/11/27 03:18:53;;;;;;;33.15;19.83;;;;;;;2.52;100.00;100446.19;5045501;28;20033;-73
2023/11/27 03:21:22;;;;;;;33.55;20.98;;;;;;;2.47;100.00;100440.84;5043951;28;20039;-73
2023/11/27 03:23:48;;;;;;;36.10;21.92;;;;;;;2.43;100.00;100433.75;5046318;28;20032;-74
2023/11/27 03:26:13;;;;;;;35.92;22.67;;;;;;;2.42;100.00;100432.88;5042116;28;20033;-73
2023/11/27 03:28:39;;;;;;;35.47;22.05;;;;;;;2.43;100.00;100424.22;5045008;28;20029;-73
2023/11/27 03:31:04;;;;;;;36.17;21.92;;;;;;;2.42;100.00;100417.22;5042796;28;20051;-75
2023/11/27 03:33:30;;;;;;;34.08;21.08;;;;;;;2.42;100.00;100409.41;5044767;28;20033;-72
2023/11/27 03:35:55;;;;;;;34.85;21.38;;;;;;;2.41;100.00;100393.69;5043395;28;20120;-73
2023/11/27 03:38:20;;;;;;;32.90;20.73;;;;;;;2.46;100.00;100412.09;5043384;28;20481;-73
2023/11/27 03:40:46;;;;;;;32.78;19.42;;;;;;;2.41;100.00;100397.19;5046318;28;20053;-73
2023/11/27 03:43:11;;;;;;;32.80;20.38;;;;;;;2.42;100.00;100385.03;5038821;28;20052;-73
2023/11/27 03:45:36;;;;;;;33.90;20.55;;;;;;;2.38;100.00;100375.34;5045380;28;20510;-73
2023/11/27 03:48:05;;;;;;;32.75;19.52;;;;;;;2.38;100.00;100368.38;5044200;28;20112;-73
2023/11/27 03:50:31;;;;;;;34.55;20.30;;;;;;;2.38;100.00;100363.16;5044527;28;20542;-73
2023/11/27 03:52:56;;;;;;;34.03;20.27;;;;;;;2.32;100.00;100351.69;5044650;28;20029;-73
2023/11/27 03:55:24;;;;;;;33.60;19.98;;;;;;;2.33;100.00;100351.72;5043438;28;20022;-75
2023/11/27 03:57:49;;;;;;;32.70;20.75;;;;;;;2.32;100.00;100336.03;5045316;28;20140;-75
2023/11/27 04:00:16;;;;;;;33.08;18.60;;;;;;;2.31;100.00;100335.13;5042370;28;20049;-75
2023/11/27 04:02:42;;;;;;;29.92;17.20;;;;;;;2.31;100.00;100319.47;5038516;28;20033;-75
2023/11/27 04:05:08;;;;;;;32.28;17.52;;;;;;;2.28;100.00;100298.53;5045186;28;20036;-75
2023/11/27 04:07:33;;;;;;;31.10;17.63;;;;;;;2.27;100.00;100296.75;5043357;28;20426;-75
2023/11/27 04:09:58;;;;;;;31.60;18.48;;;;;;;2.25;100.00;100288.00;5043972;28;20056;-75
2023/11/27 04:12:24;;;;;;;31.63;17.88;;;;;;;2.26;100.00;100280.22;5044668;28;20456;-75
2023/11/27 04:14:49;;;;;;;28.75;16.98;;;;;;;2.25;100.00;100280.19;5042360;28;20037;-75
2023/11/27 04:17:14;;;;;;;29.52;17.42;;;;;;;2.22;100.00;100265.31;5045707;28;20044;-75
2023/11/27 04:19:40;;;;;;;28.05;15.40;;;;;;;2.24;100.00;100273.19;5042262;28;20029;-75
2023/11/27 04:22:05;;;;;;;29.45;15.93;;;;;;;2.24;100.00;100270.56;5043405;28;20029;-75
2023/11/27 04:24:30;;;;;;;30.83;17.02;;;;;;;2.22;100.00;100246.19;5043647;28;20162;-75
2023/11/27 04:26:56;;;;;;;28.38;16.45;;;;;;;2.24;100.00;100254.94;5043048;28;20045;-75
2023/11/27 04:29:21;;;;;;;29.10;16.60;;;;;;;2.24;100.00;100250.63;5044799;28;20117;-75
2023/11/27 04:31:47;;;;;;;27.50;16.15;;;;;;;2.22;100.00;100240.97;5041783;28;20083;-75
2023/11/27 04:34:12;;;;;;;29.95;17.15;;;;;;;2.20;100.00;100258.28;5045212;28;20021;-74
2023/11/27 04:36:37;;;;;;;28.08;14.90;;;;;;;2.27;100.00;100241.97;5042483;28;20497;-77
2023/11/27 04:39:03;;;;;;;26.65;15.02;;;;;;;2.28;100.00;100243.75;5043815;28;20026;-77
2023/11/27 04:41:29;;;;;;;29.92;15.60;;;;;;;2.21;100.00;100255.75;5043439;28;20036;-77
2023/11/27 04:43:54;;;;;;;27.60;15.63;;;;;;;2.20;100.00;100232.19;5041523;28;20034;-78
2023/11/27 04:46:19;;;;;;;27.08;15.55;;;;;;;2.17;100.00;100219.97;5044441;28;20099;-77
2023/11/27 04:48:45;;;;;;;30.05;15.88;;;;;;;2.19;100.00;100207.84;5040967;28;20064;-77
2023/11/27 04:51:11;;;;;;;28.75;15.52;;;;;;;2.20;100.00;100216.56;5044749;28;20427;-77
2023/11/27 04:53:37;;;;;;;29.08;16.05;;;;;;;2.20;100.00;100204.41;5042097;28;20017;-78
2023/11/27 04:56:02;;;;;;;27.92;14.95;;;;;;;2.26;100.00;100198.50;5043449;28;20120;-75
2023/11/27 04:58:28;;;;;;;28.77;15.13;;;;;;;2.23;100.00;100190.59;5043068;28;20167;-77
2023/11/27 05:00:53;;;;;;;28.48;16.20;;;;;;;2.23;100.00;100175.81;5042143;28;20113;-77
2023/11/27 05:03:20;;;;;;;27.75;15.23;;;;;;;2.22;100.00;100189.69;5044358;28;20028;-76
2023/11/27 05:05:45;;;;;;;27.98;14.30;;;;;;;2.29;100.00;100180.31;5041409;28;20025;-77
2023/11/27 05:08:10;;;;;;;26.30;14.43;;;;;;;2.27;100.00;100179.38;5044268;28;20045;-76
2023/11/27 05:10:38;;;;;;;26.40;14.25;;;;;;;2.24;100.00;100161.94;5042228;28;20079;-75
2023/11/27 05:13:05;;;;;;;26.90;14.43;;;;;;;2.24;100.00;100167.16;5043818;28;20041;-72
2023/11/27 05:15:30;;;;;;;27.85;15.13;;;;;;;2.26;100.00;100149.81;5042539;28;20031;-72
2023/11/27 05:17:56;;;;;;;25.45;13.02;;;;;;;2.30;100.00;100150.78;5042405;28;20112;-72
2023/11/27 05:20:22;;;;;;;26.60;13.75;;;;;;;2.26;100.00;100148.94;5044089;28;20059;-73
2023/11/27 05:22:47;;;;;;;26.77;14.95;;;;;;;2.26;100.00;100148.94;5040940;28;20033;-72
2023/11/27 05:25:12;;;;;;;26.38;15.05;;;;;;;2.24;100.00;100145.38;5037104;28;20112;-72
2023/11/27 05:27:39;;;;;;;27.70;15.55;;;;;;;2.24;100.00;100146.28;5043933;28;20033;-72
2023/11/27 05:30:06;;;;;;;27.00;15.02;;;;;;;2.27;100.00;100150.69;5041986;28;20052;-72
2023/11/27 05:32:31;;;;;;;26.13;14.25;;;;;;;2.25;100.00;100144.53;5042946;28;20099;-72
2023/11/27 05:34:56;;;;;;;28.90;15.93;;;;;;;2.24;100.00;100135.84;5041741;28;20033;-73
2023/11/27 05:37:22;;;;;;;27.73;16.02;;;;;;;2.25;100.00;100121.94;5041417;28;20117;-72
2023/11/27 05:39:47;;;;;;;27.30;15.07;;;;;;;2.26;100.00;100113.28;5044825;28;20159;-72
2023/11/27 05:42:12;;;;;;;28.50;16.25;;;;;;;2.27;100.00;100124.59;5036660;28;20455;-72
2023/11/27 05:44:38;;;;;;;26.77;15.18;;;;;;;2.28;100.00;100100.28;5043542;28;20029;-72
2023/11/27 05:47:04;;;;;;;28.27;15.55;;;;;;;2.27;100.00;100106.34;5040845;28;20056;-71
2023/11/27 05:49:33;;;;;;;27.40;15.25;;;;;;;2.29;100.00;100095.94;5042298;28;20036;-71
2023/11/27 05:51:58;;;;;;;26.77;15.70;;;;;;;2.29;100.00;100077.69;5042666;28;20025;-71
2023/11/27 05:54:24;;;;;;;27.05;15.82;;;;;;;2.26;100.00;100070.69;5041671;28;20025;-71
2023/11/27 05:56:50;;;;;;;27.00;15.43;;;;;;;2.29;100.00;100065.53;5043639;28;20484;-72
2023/11/27 05:59:16;;;;;;;25.30;14.48;;;;;;;2.28;100.00;100063.75;5042663;28;20037;-71
2023/11/27 06:01:42;;;;;;;27.63;15.57;;;;;;;2.26;100.00;100062.84;5047996;28;20361;-71
2023/11/27 06:04:08;;;;;;;26.05;14.82;;;;;;;2.25;100.00;100056.75;5045209;28;20080;-71
2023/11/27 06:06:33;;;;;;;26.75;15.48;;;;;;;2.25;100.00;100046.31;5046634;28;20029;-71
2023/11/27 06:08:58;;;;;;;27.55;15.95;;;;;;;2.27;100.00;100046.34;5046567;28;20032;-73
2023/11/27 06:11:24;;;;;;;28.63;16.25;;;;;;;2.26;100.00;100057.66;5045329;28;20057;-73
2023/11/27 06:13:49;;;;;;;26.13;15.63;;;;;;;2.26;100.00;100057.66;5046466;28;20407;-74
2023/11/27 06:16:14;;;;;;;27.10;16.33;;;;;;;2.25;100.00;100048.91;5044343;28;20029;-73
2023/11/27 06:18:40;;;;;;;26.70;15.98;;;;;;;2.25;100.00;100040.22;5047540;28;20053;-73
2023/11/27 06:21:06;;;;;;;28.67;15.85;;;;;;;2.25;100.00;100035.00;5045629;28;20384;-73
2023/11/27 06:23:32;;;;;;;27.60;15.75;;;;;;;2.28;100.00;100032.47;5046384;28;20026;-73
2023/11/27 06:25:59;;;;;;;27.42;15.98;;;;;;;2.27;100.00;100028.09;5046164;28;20035;-75
2023/11/27 06:28:24;;;;;;;27.70;17.13;;;;;;;2.28;100.00;100023.78;5045458;28;20021;-73
2023/11/27 06:30:52;;;;;;;27.58;16.35;;;;;;;2.31;100.00;100016.00;5047196;28;20117;-73
2023/11/27 06:33:18;;;;;;;28.42;18.02;;;;;;;2.29;100.00;100013.38;5044055;28;20038;-73
2023/11/27 06:35:44;;;;;;;28.95;16.65;;;;;;;2.31;100.00;100010.81;5040158;28;20113;-73
2023/11/27 06:38:10;;;;;;;28.55;17.33;;;;;;;2.31;100.00;100005.59;5047057;28;20056;-73
2023/11/27 06:40:35;;;;;;;27.95;17.00;;;;;;;2.33;100.00;100003.88;5045230;28;20455;-73
2023/11/27 06:43:01;;;;;;;29.25;17.40;;;;;;;2.32;100.00;99986.50;5044490;28;20124;-73
2023/11/27 06:45:26;;;;;;;27.58;16.98;;;;;;;2.33;100.00;99989.13;5046004;28;20025;-76
2023/11/27 06:47:51;;;;;;;28.48;17.70;;;;;;;2.33;100.00;99983.91;5044201;28;20155;-74
2023/11/27 06:50:20;;;;;;;28.35;17.58;;;;;;;2.35;100.00;99976.13;5047373;28;20033;-72
2023/11/27 06:52:46;;;;;;;27.48;17.98;;;;;;;2.36;100.00;99963.13;5040022;28;20029;-75
2023/11/27 06:55:12;;;;;;;28.67;18.80;;;;;;;2.37;100.00;99958.78;5046787;28;20416;-76
2023/11/27 06:57:37;;;;;;;29.33;18.17;;;;;;;2.38;100.00;99952.72;5044312;28;20061;-72
2023/11/27 07:00:05;;;;;;;28.05;17.55;;;;;;;2.40;100.00;99948.41;5045444;28;20396;-75
2023/11/27 07:02:30;;;;;;;29.77;18.35;;;;;;;2.38;100.00;99935.31;5045185;28;20539;-73
2023/11/27 07:04:57;;;;;;;29.65;17.98;;;;;;;2.40;100.00;99928.44;5043430;28;20025;-73
2023/11/27 07:07:23;;;;;;;30.58;18.30;;;;;;;2.42;100.00;99929.34;5046169;28;20031;-74
2023/11/27 07:09:48;;;;;;;28.27;17.58;;;;;;;2.43;100.00;99923.28;5042967;28;20109;-71
2023/11/27 07:12:15;;;;;;;29.70;18.73;;;;;;;2.43;100.00;99918.06;5047035;28;20059;-73
2023/11/27 07:14:40;;;;;;;28.88;18.95;;;;;;;2.44;100.00;99919.81;5043612;28;20091;-75
2023/11/27 07:17:07;;;;;;;30.67;19.48;;;;;;;2.47;100.00;99912.91;5045723;28;20029;-75
2023/11/27 07:19:32;;;;;;;30.10;18.30;;;;;;;2.47;100.00;99905.09;5043710;28;20028;-74
2023/11/27 07:21:59;;;;;;;29.67;19.83;;;;;;;2.49;100.00;99916.41;5044190;28;20041;-76
2023/11/27 07:24:24;;;;;;;30.40;19.58;;;;;;;2.51;100.00;99904.31;5044663;28;20491;-70
2023/11/27 07:26:49;;;;;;;31.52;20.85;;;;;;;2.53;100.00;99902.59;5043160;28;20029;-70
2023/11/27 07:29:15;;;;;;;30.77;20.83;;;;;;;2.54;100.00;99896.53;5046482;28;20036;-70
2023/11/27 07:31:40;;;;;;;31.63;21.13;;;;;;;2.55;100.00;99888.75;5043715;28;20053;-70
2023/11/27 07:34:05;;;;;;;32.75;21.15;;;;;;;2.57;100.00;99894.88;5045153;28;20464;-70
2023/11/27 07:36:31;;;;;;;31.58;20.95;;;;;;;2.60;100.00;99894.06;5044816;28;20035;-70
2023/11/27 07:38:56;;;;;;;31.45;20.92;;;;;;;2.61;100.00;99885.41;5043981;28;20546;-70
2023/11/27 07:41:22;;;;;;;33.00;22.13;;;;;;;2.62;100.00;99887.13;5045749;28;20113;-69
2023/11/27 07:43:47;;;;;;;33.08;21.90;;;;;;;2.64;100.00;99875.00;5042912;28;20041;-69
2023/11/27 07:46:13;;;;;;;31.98;21.67;;;;;;;2.66;100.00;99873.31;5046049;28;20033;-69
2023/11/27 07:48:39;;;;;;;34.40;22.77;;;;;;;2.68;100.00;99875.94;5043303;28;20032;-70
2023/11/27 07:51:06;;;;;;;34.70;23.20;;;;;;;2.70;100.00;99872.53;5044798;28;20076;-70
2023/11/27 07:53:32;;;;;;;35.42;23.33;;;;;;;2.71;100.00;99863.84;5044313;28;20055;-69
2023/11/27 07:55:59;;;;;;;35.00;24.30;;;;;;;2.74;100.00;99856.09;5043740;28;20465;-69
2023/11/27 07:58:25;;;;;;;34.10;22.42;;;;;;;2.75;100.00;99857.84;5044919;28;20377;-69
2023/11/27 08:00:50;;;;;;;32.97;21.90;;;;;;;2.76;100.00;99851.75;5042694;28;20052;-72
2023/11/27 08:03:15;;;;;;;32.88;21.92;;;;;;;2.78;100.00;99842.25;5027987;28;20120;-70
2023/11/27 08:05:41;;;;;;;34.95;23.35;;;;;;;2.80;100.00;99842.28;5042832;28;20024;-69
2023/11/27 08:08:08;;;;;;;32.00;20.90;;;;;;;2.84;100.00;99835.38;5043340;28;20030;-69
2023/11/27 08:10:36;;;;;;;31.48;19.55;;;;;;;2.86;100.00;99836.31;5043601;28;20481;-70
2023/11/27 08:13:04;;;;;;;33.10;21.00;;;;;;;2.87;100.00;99828.50;5044112;28;20108;-69
2023/11/27 08:15:29;;;;;;;32.65;20.10;;;;;;;2.88;100.00;99821.53;5044266;28;20021;-70
2023/11/27 08:17:55;;;;;;;33.50;21.33;;;;;;;2.91;100.00;99816.38;5042708;28;20030;-69
2023/11/27 08:20:27;;;;;;;31.98;19.52;;;;;;;2.94;100.00;99805.97;5045465;28;20112;-75
2023/11/27 08:22:59;;;;;;;28.95;18.17;;;;;;;2.93;100.00;99804.25;5042496;28;20388;-75
2023/11/27 08:25:25;;;;;;;30.20;18.57;;;;;;;2.96;100.00;99804.28;5044658;28;20476;-74
2023/11/27 08:27:52;;;;;;;28.75;18.10;;;;;;;2.97;100.00;99801.72;5041962;28;20025;-75
2023/11/27 08:30:19;;;;;;;29.05;18.42;;;;;;;3.00;100.00;99794.78;5045538;28;20032;-75
2023/11/27 08:32:45;;;;;;;30.27;19.00;;;;;;;3.02;100.00;99796.56;5041796;28;20190;-75
2023/11/27 08:35:11;;;;;;;29.48;18.17;;;;;;;3.04;100.00;99788.75;5044535;28;20036;-75
2023/11/27 08:37:36;;;;;;;29.42;18.70;;;;;;;3.08;100.00;99794.06;5042862;28;20396;-75
2023/11/27 08:40:06;;;;;;;29.50;18.30;;;;;;;3.09;100.00;99779.28;5043332;28;20038;-73
2023/11/27 08:42:34;;;;;;;30.80;19.15;;;;;;;3.11;100.00;99778.44;5043291;28;20388;-75
2023/11/27 08:45:10;;;;;;;30.25;17.27;;;;;;;3.14;100.00;99781.09;5042935;28;20032;-75
2023/11/27 08:47:38;;;;;;;28.17;17.33;;;;;;;3.14;100.00;99770.66;5043289;28;20048;-75
2023/11/27 08:50:05;;;;;;;27.05;16.67;;;;;;;3.17;100.00;99768.97;5043354;28;20029;-75
2023/11/27 08:52:31;;;;;;;29.17;17.52;;;;;;;3.18;100.00;99773.34;5043267;28;20473;-75
2023/11/27 08:54:57;;;;;;;28.65;17.55;;;;;;;3.20;100.00;99766.41;5042679;28;20037;-74
2023/11/27 08:57:23;;;;;;;29.92;18.30;;;;;;;3.21;100.00;99762.94;5044100;28;20053;-74
2023/11/27 08:59:49;;;;;;;27.00;16.75;;;;;;;3.23;100.00;99758.63;5041427;28;20469;-75
2023/11/27 09:02:15;;;;;;;27.63;16.77;;;;;;;3.24;100.00;99755.16;5044811;28;20036;-75
2023/11/27 09:04:42;;;;;;;27.63;16.15;;;;;;;3.27;100.00;99748.25;5040803;28;20029;-74
2023/11/27 09:07:07;;;;;;;27.55;16.35;;;;;;;3.28;100.00;99755.22;5043498;28;20037;-71
2023/11/27 09:09:33;;;;;;;27.17;16.15;;;;;;;3.30;100.00;99744.81;5043244;28;20029;-74
2023/11/27 09:11:58;;;;;;;26.20;15.63;;;;;;;3.31;100.00;99741.34;5042326;28;20079;-73
2023/11/27 09:14:24;;;;;;;26.20;15.65;;;;;;;3.31;100.00;99733.50;5042998;28;20058;-74
2023/11/27 09:16:49;;;;;;;26.58;16.00;;;;;;;3.33;100.00;99731.78;5040875;28;20031;-74
2023/11/27 09:19:14;;;;;;;26.30;14.82;;;;;;;3.35;100.00;99719.66;5044429;28;20127;-69
2023/11/27 09:21:40;;;;;;;25.98;15.15;;;;;;;3.36;100.00;99734.44;5041758;28;20040;-69
2023/11/27 09:24:06;;;;;;;27.80;16.67;;;;;;;3.36;100.00;99718.78;5043054;28;20162;-73
2023/11/27 09:26:32;;;;;;;25.77;15.25;;;;;;;3.37;100.00;99715.31;5042804;28;20075;-73
2023/11/27 09:28:57;;;;;;;26.15;15.43;;;;;;;3.41;100.00;99713.66;5041901;28;20461;-67
2023/11/27 09:31:23;;;;;;;26.40;15.13;;;;;;;3.41;100.00;99711.91;5043666;28;20083;-67
2023/11/27 09:33:48;;;;;;;26.50;15.38;;;;;;;3.43;100.00;99707.56;5040240;28;20049;-66
2023/11/27 09:36:15;;;;;;;27.83;16.00;;;;;;;3.42;100.00;99700.59;5044067;28;20030;-67
2023/11/27 09:38:41;;;;;;;26.73;15.32;;;;;;;3.42;100.00;99695.38;5040148;28;20502;-67
2023/11/27 09:41:07;;;;;;;26.25;15.50;;;;;;;3.43;100.00;99688.41;5043221;28;20116;-67
2023/11/27 09:43:37;;;;;;;27.80;15.55;;;;;;;3.47;100.00;99687.59;5042780;28;20470;-67
2023/11/27 09:46:06;;;;;;;24.98;13.13;;;;;;;3.49;100.00;99692.00;5042242;28;20176;-67
2023/11/27 09:48:36;;;;;;;24.88;14.20;;;;;;;3.50;100.00;99682.41;5042468;28;20044;-67
2023/11/27 09:51:06;;;;;;;25.52;14.57;;;;;;;3.52;100.00;99690.28;5042057;28;20029;-67
2023/11/27 09:53:40;;;;;;;25.52;14.45;;;;;;;3.52;100.00;99679.81;5043224;28;20029;-69
2023/11/27 09:56:07;;;;;;;24.08;14.10;;;;;;;3.54;100.00;99675.47;5041000;28;20022;-70
2023/11/27 09:58:36;;;;;;;25.85;14.15;;;;;;;3.54;100.00;99668.53;5041552;28;20054;-70
2023/11/27 10:01:05;;;;;;;24.02;13.10;;;;;;;3.58;100.00;99659.91;5041815;28;20108;-69
2023/11/27 10:03:31;;;;;;;25.13;13.60;;;;;;;3.56;100.00;99645.91;5042639;28;20044;-70
2023/11/27 10:05:57;;;;;;;24.73;13.40;;;;;;;3.59;100.00;99650.31;5042149;28;20029;-69
2023/11/27 10:08:26;;;;;;;24.13;12.77;;;;;;;3.60;100.00;99652.94;5040743;28;20381;-69
2023/11/27 10:10:52;;;;;;;22.25;11.65;;;;;;;3.61;100.00;99643.34;5042928;28;20512;-74
2023/11/27 10:13:35;;;;;;;22.98;11.77;;;;;;;3.63;100.00;99639.91;5040972;28;20037;-73
2023/11/27 10:16:05;;;;;;;22.92;11.88;;;;;;;3.62;100.00;99634.66;5041885;28;20025;-73
2023/11/27 10:18:31;;;;;;;22.92;12.00;;;;;;;3.61;100.00;99633.78;5043060;28;20108;-73
2023/11/27 10:20:56;;;;;;;23.13;11.85;;;;;;;3.63;100.00;99625.97;5042016;28;20021;-71
2023/11/27 10:23:22;;;;;;;23.73;12.13;;;;;;;3.62;100.00;99613.75;5041234;28;20036;-74
2023/11/27 10:25:57;;;;;;;24.27;12.48;;;;;;;3.64;100.00;99618.16;5043543;28;20035;-72
2023/11/27 10:28:23;;;;;;;24.48;12.48;;;;;;;3.65;100.00;99612.03;5023887;28;20499;-72
2023/11/27 10:30:51;;;;;;;24.75;12.90;;;;;;;3.67;100.00;99614.69;5043215;28;20028;-72
2023/11/27 10:33:16;;;;;;;24.60;12.90;;;;;;;3.67;100.00;99618.19;5040727;28;20133;-74
2023/11/27 10:35:42;;;;;;;22.88;11.85;;;;;;;3.68;100.00;99605.97;5043941;28;20476;-72
2023/11/27 10:38:17;;;;;;;22.88;12.48;;;;;;;3.70;100.00;99598.16;5040553;28;20037;-73
2023/11/27 10:40:43;;;;;;;22.08;11.18;;;;;;;3.69;100.00;99594.69;5036460;28;20053;-73
2023/11/27 10:43:10;;;;;;;22.25;11.38;;;;;;;3.71;100.00;99589.47;5043545;28;20469;-73
2023/11/27 10:45:38;;;;;;;21.42;10.70;;;;;;;3.71;100.00;99581.63;5041443;28;20033;-73
2023/11/27 10:48:06;;;;;;;22.85;11.45;;;;;;;3.71;100.00;99584.25;5046271;28;20037;-73
2023/11/27 10:50:32;;;;;;;21.42;10.90;;;;;;;3.70;100.00;99577.25;5044936;28;20047;-73
2023/11/27 10:52:58;;;;;;;22.23;11.38;;;;;;;3.71;100.00;99561.56;5045426;28;20037;-72
2023/11/27 10:55:26;;;;;;;22.45;11.35;;;;;;;3.72;100.00;99560.72;5045653;28;20468;-73
2023/11/27 10:57:55;;;;;;;24.33;11.65;;;;;;;3.73;100.00;99562.50;5044436;28;20160;-72
2023/11/27 11:00:32;;;;;;;21.60;11.27;;;;;;;3.74;100.00;99565.97;5046126;28;20021;-73
2023/11/27 11:03:08;;;;;;;22.38;11.13;;;;;;;3.77;100.00;99546.00;5044116;28;20033;-71
2023/11/27 11:05:49;;;;;;;21.17;10.85;;;;;;;3.75;100.00;99558.16;5044221;28;20017;-73
2023/11/27 11:08:20;;;;;;;22.17;11.30;;;;;;;3.75;100.00;99558.16;5038729;28;20112;-72